Time;durP1;ratioP1;P1;durP2;ratioP2;P2;SDS_P1;SDS_P2;PMS_P1;PMS_P2;Temp;Humidity;BMP_temperature;BMP_pressure;BME280_temperature;BME280_humidity;BME280_pressure;Samples;Min_cycle;Max_cycle;Signal;HPM_P1;HPM_P2
2022/08/29 00:01:37;;;;;;;19.40;11.50;;;;;;;18.88;83.49;98545.05;431305;1273;108726;-40
2022/08/29 00:11:45;;;;;;;17.60;12.50;;;;;;;18.85;83.55;98543.64;431348;1273;99254;-42
2022/08/29 00:31:59;;;;;;;14.40;12.10;;;;;;;18.77;83.65;98545.61;431920;1273;99268;-41
2022/08/29 00:42:08;;;;;;;14.80;12.50;;;;;;;18.74;83.80;98546.83;430625;1276;111286;-41
2022/08/29 00:52:22;;;;;;;14.10;12.40;;;;;;;18.68;83.98;98541.63;432201;1273;108880;-40
2022/08/29 01:02:30;;;;;;;14.90;10.80;;;;;;;18.63;84.13;98542.95;432039;1273;99056;-41
2022/08/29 01:12:37;;;;;;;16.10;11.80;;;;;;;18.63;84.39;98548.95;432830;1260;108884;-41
2022/08/29 01:22:47;;;;;;;16.50;12.80;;;;;;;18.62;84.41;98557.16;432225;1271;99259;-38
2022/08/29 01:43:01;;;;;;;19.30;14.00;;;;;;;18.59;84.49;98556.20;432520;1271;108440;-40
2022/08/29 01:53:08;;;;;;;15.10;12.90;;;;;;;18.58;84.62;98564.57;432217;1271;99915;-40
2022/08/29 02:03:17;;;;;;;18.20;12.60;;;;;;;18.57;84.62;98572.67;432337;1271;109272;-39
2022/08/29 02:13:24;;;;;;;18.50;12.50;;;;;;;18.58;84.87;98579.89;432585;1271;99269;-40
2022/08/29 02:23:33;;;;;;;17.80;13.40;;;;;;;18.55;84.73;98575.59;432452;1271;112380;-40
2022/08/29 02:33:41;;;;;;;17.80;13.50;;;;;;;18.56;84.68;98579.55;432316;1271;108995;-40
2022/08/29 02:43:48;;;;;;;17.10;13.10;;;;;;;18.53;84.63;98588.46;432268;1271;98834;-39
2022/08/29 02:53:56;;;;;;;21.80;15.60;;;;;;;18.42;84.75;98592.73;432106;1271;108987;-41
2022/08/29 03:04:03;;;;;;;24.30;15.90;;;;;;;18.33;85.02;98588.69;432229;1271;98557;-41
2022/08/29 03:14:10;;;;;;;22.70;13.80;;;;;;;18.29;84.70;98592.48;432504;1271;112048;-40
2022/08/29 03:24:17;;;;;;;16.50;13.30;;;;;;;18.20;84.96;98606.03;432428;1271;109519;-40
2022/08/29 03:34:33;;;;;;;15.10;11.90;;;;;;;18.14;84.88;98621.17;432421;1271;97963;-40
2022/08/29 03:44:42;;;;;;;15.80;12.00;;;;;;;18.03;85.10;98634.90;432315;1271;108977;-40
2022/08/29 03:54:49;;;;;;;18.00;11.60;;;;;;;17.93;85.09;98648.91;432534;1271;98839;-41
2022/08/29 04:05:08;;;;;;;15.00;12.00;;;;;;;17.88;85.30;98661.04;432631;1271;112028;-42
2022/08/29 04:15:15;;;;;;;21.30;12.30;;;;;;;17.84;85.28;98673.38;432185;1271;107885;-41
2022/08/29 04:35:31;;;;;;;13.20;10.40;;;;;;;17.71;84.92;98696.48;432129;1271;108940;-40
2022/08/29 04:55:55;;;;;;;15.90;10.30;;;;;;;17.66;84.97;98729.27;432761;1271;111436;-41
2022/08/29 05:16:12;;;;;;;14.30;10.20;;;;;;;17.80;84.75;98738.71;432703;1271;98828;-39
2022/08/29 05:26:19;;;;;;;13.10;9.90;;;;;;;17.88;84.32;98745.35;432204;1269;107845;-40
2022/08/29 05:36:26;;;;;;;17.00;9.60;;;;;;;18.02;84.48;98748.77;432299;1272;99277;-40
2022/08/29 05:46:33;;;;;;;14.30;10.40;;;;;;;18.14;84.00;98754.16;432713;1271;111673;-40
2022/08/29 05:56:41;;;;;;;16.00;11.00;;;;;;;18.23;83.89;98761.84;432364;1271;109083;-42
2022/08/29 06:06:49;;;;;;;15.00;9.00;;;;;;;18.27;83.71;98763.64;430560;1271;1773043;-41
2022/08/29 06:16:55;;;;;;;14.70;8.80;;;;;;;18.35;83.69;98767.96;432394;1271;109004;-40
2022/08/29 06:27:03;;;;;;;9.80;7.70;;;;;;;19.06;84.16;98783.89;432265;1271;98866;-41
2022/08/29 06:37:10;;;;;;;14.40;9.80;;;;;;;20.10;83.07;98795.33;432227;1271;112534;-39
2022/08/29 06:47:18;;;;;;;11.30;8.20;;;;;;;20.97;83.28;98802.77;432522;1271;109156;-39
2022/08/29 07:07:32;;;;;;;10.50;5.70;;;;;;;22.67;80.45;98821.21;432674;1271;109016;-41
2022/08/29 07:27:49;;;;;;;11.60;6.00;;;;;;;22.52;77.09;98839.59;432519;1271;111399;-41
2022/08/29 07:37:57;;;;;;;11.80;6.30;;;;;;;22.20;75.89;98850.98;432336;1271;108329;-41
2022/08/29 07:48:04;;;;;;;11.50;6.30;;;;;;;22.63;75.25;98854.47;432569;1271;98004;-41
2022/08/29 07:58:16;;;;;;;6.30;4.80;;;;;;;22.59;74.41;98859.51;432481;1271;108955;-41
2022/08/29 08:08:23;;;;;;;12.20;5.10;;;;;;;23.10;73.44;98855.52;432312;1271;98628;-41
2022/08/29 08:18:30;;;;;;;12.60;4.50;;;;;;;23.05;72.25;98869.90;432540;1271;112479;-40
2022/08/29 08:28:39;;;;;;;8.10;5.40;;;;;;;22.64;70.22;98879.58;432435;1271;108233;-41
2022/08/29 08:38:47;;;;;;;11.60;4.60;;;;;;;22.67;70.17;98880.08;431962;1271;99250;-40
2022/08/29 08:48:55;;;;;;;9.00;3.80;;;;;;;22.86;69.37;98883.09;431502;1271;107757;-40
2022/08/29 09:09:07;;;;;;;8.70;4.70;;;;;;;23.25;68.09;98877.86;432692;1271;111447;-41
2022/08/29 09:19:16;;;;;;;10.80;4.50;;;;;;;23.11;67.30;98888.83;432612;1271;108774;-41
2022/08/29 09:29:24;;;;;;;8.60;3.90;;;;;;;23.36;66.71;98882.79;432491;1271;99010;-41
2022/08/29 09:39:32;;;;;;;5.90;3.40;;;;;;;23.52;65.89;98879.92;432363;1271;108354;-43
2022/08/29 09:49:41;;;;;;;9.90;3.40;;;;;;;23.65;64.96;98879.73;432186;1271;99043;-41
2022/08/29 09:59:50;;;;;;;13.60;3.30;;;;;;;23.59;63.70;98881.05;432480;1271;113450;-41
2022/08/29 10:09:59;;;;;;;11.10;4.20;;;;;;;22.94;62.88;98884.73;432346;1274;108716;-41
2022/08/29 10:20:39;;;;;;;10.60;3.60;;;;;;;22.45;63.23;98884.98;432451;1273;98030;-40
2022/08/29 10:30:49;;;;;;;8.30;3.70;;;;;;;23.00;63.20;98876.59;431913;1274;108641;-40
2022/08/29 10:41:03;;;;;;;8.30;3.50;;;;;;;23.23;62.47;98877.55;431863;1273;99842;-40
2022/08/29 10:51:21;;;;;;;11.60;3.90;;;;;;;23.59;61.71;98874.58;431817;1273;112373;-41
2022/08/29 11:01:29;;;;;;;8.80;4.00;;;;;;;23.21;60.92;98880.44;432488;1273;108818;-39
2022/08/29 11:11:40;;;;;;;9.50;3.70;;;;;;;22.75;61.08;98882.12;432448;1271;97947;-39
2022/08/29 11:21:52;;;;;;;9.80;3.40;;;;;;;22.72;61.43;98876.70;432200;1271;112595;-40
2022/08/29 11:32:02;;;;;;;7.60;3.60;;;;;;;22.54;61.06;98874.70;432326;1271;109081;-40
2022/08/29 11:42:13;;;;;;;7.30;3.00;;;;;;;22.99;60.94;98880.41;432510;1271;97959;-39
2022/08/29 12:02:39;;;;;;;6.60;2.90;;;;;;;23.06;59.39;98867.00;432559;1271;98049;-40
2022/08/29 12:12:48;;;;;;;8.50;2.60;;;;;;;23.16;59.32;98857.73;432693;1268;112503;-41
2022/08/29 12:22:55;;;;;;;6.50;2.70;;;;;;;23.06;58.82;98860.91;431963;1271;108697;-40
2022/08/29 12:33:09;;;;;;;8.60;3.20;;;;;;;23.01;58.05;98852.02;431528;1271;99270;-42
2022/08/29 12:43:28;;;;;;;6.60;3.00;;;;;;;22.96;57.53;98849.81;432349;1271;108816;-41
2022/08/29 12:53:37;;;;;;;7.60;3.40;;;;;;;22.66;57.21;98850.35;432403;1271;98032;-40
2022/08/29 13:03:54;;;;;;;12.00;3.00;;;;;;;22.57;56.81;98846.56;432417;1271;112438;-41
2022/08/29 13:14:05;;;;;;;7.10;3.30;;;;;;;22.52;56.98;98845.77;432724;1271;109475;-41
2022/08/29 13:24:13;;;;;;;7.10;3.10;;;;;;;22.57;56.81;98848.65;432689;1271;98057;-41
2022/08/29 13:34:21;;;;;;;7.30;3.70;;;;;;;22.56;56.82;98851.00;432634;1271;108695;-41
2022/08/29 13:44:31;;;;;;;7.80;3.30;;;;;;;22.54;56.43;98854.93;432374;1271;99248;-41
2022/08/29 14:14:53;;;;;;;9.10;4.50;;;;;;;22.15;56.16;98854.98;432534;1270;99320;-39
2022/08/29 14:25:01;;;;;;;6.40;4.00;;;;;;;22.01;55.92;98857.48;432541;1268;108766;-41
2022/08/29 14:35:06;;;;;;;10.40;3.70;;;;;;;21.91;55.48;98862.89;432523;1271;99237;-40
2022/08/29 14:45:15;;;;;;;6.20;3.00;;;;;;;21.84;55.19;98859.92;432641;1271;112434;-40
2022/08/29 14:55:22;;;;;;;9.10;3.30;;;;;;;21.80;55.24;98853.69;432387;1271;108720;-42
2022/08/29 15:15:38;;;;;;;9.90;3.50;;;;;;;21.59;55.39;98860.25;432201;1271;109031;-41
2022/08/29 15:25:45;;;;;;;11.80;3.20;;;;;;;21.43;55.36;98860.63;432222;1271;98011;-41
2022/08/29 15:35:58;;;;;;;6.70;3.40;;;;;;;21.43;55.66;98852.29;432631;1271;112445;-41
2022/08/29 15:46:05;;;;;;;7.30;2.60;;;;;;;21.41;55.94;98853.40;432562;1271;107966;-41
2022/08/29 15:56:13;;;;;;;9.70;3.00;;;;;;;21.33;56.13;98850.91;432319;1271;98029;-43
2022/08/29 16:06:20;;;;;;;5.10;2.80;;;;;;;21.25;56.19;98847.73;432495;1271;108945;-43
2022/08/29 16:16:29;;;;;;;4.10;3.00;;;;;;;21.24;56.59;98843.23;432488;1271;98869;-41
2022/08/29 16:26:37;;;;;;;6.50;2.90;;;;;;;21.06;57.03;98846.58;432549;1271;111814;-39
2022/08/29 16:36:54;;;;;;;7.30;3.20;;;;;;;20.78;57.44;98839.45;432430;1271;109076;-40
2022/08/29 16:47:01;;;;;;;7.70;3.30;;;;;;;20.60;57.90;98835.00;432579;1271;99369;-42
2022/08/29 16:57:09;;;;;;;7.00;3.20;;;;;;;20.28;58.23;98836.45;432372;1271;108771;-41
2022/08/29 17:07:17;;;;;;;7.10;3.50;;;;;;;19.98;58.93;98838.52;432813;1271;97966;-41
2022/08/29 17:17:23;;;;;;;7.70;3.30;;;;;;;19.68;59.46;98835.63;432474;1271;112205;-42
2022/08/29 17:27:30;;;;;;;9.20;3.50;;;;;;;19.47;60.05;98845.14;432110;1271;106940;-41
2022/08/29 17:37:37;;;;;;;9.00;3.50;;;;;;;19.31;60.72;98854.11;432311;1271;98799;-42
2022/08/29 17:47:44;;;;;;;10.90;3.60;;;;;;;19.09;61.72;98856.17;432687;1271;108928;-41
2022/08/29 17:57:51;;;;;;;6.70;4.00;;;;;;;18.76;61.97;98861.52;432763;1271;99282;-41
2022/08/29 18:07:58;;;;;;;8.70;4.00;;;;;;;18.32;62.46;98873.24;431233;1271;1807788;-41
2022/08/29 18:18:07;;;;;;;14.20;3.90;;;;;;;17.92;63.41;98880.12;432333;1271;108723;-42
2022/08/29 18:28:14;;;;;;;7.90;5.10;;;;;;;17.66;64.08;98889.55;432393;1271;99308;-41
2022/08/29 18:38:22;;;;;;;12.60;5.80;;;;;;;17.49;64.81;98899.86;432433;1271;109014;-41
2022/08/29 18:48:29;;;;;;;13.00;5.30;;;;;;;17.39;65.05;98912.11;432470;1271;98020;-41
2022/08/29 18:58:39;;;;;;;45.90;16.50;;;;;;;17.21;65.31;98918.58;432342;1271;111091;-41
2022/08/29 19:08:47;;;;;;;44.50;19.50;;;;;;;17.07;65.61;98923.25;432185;1271;108824;-41
2022/08/29 19:18:54;;;;;;;35.80;15.00;;;;;;;16.95;65.94;98932.89;432639;1271;98137;-40
2022/08/29 19:29:05;;;;;;;25.20;11.00;;;;;;;16.84;66.42;98952.52;432379;1271;109011;-42
2022/08/29 19:39:12;;;;;;;27.80;9.40;;;;;;;16.75;66.82;98948.00;432059;1271;99290;-42
2022/08/29 19:49:19;;;;;;;15.60;6.80;;;;;;;16.54;67.13;98945.92;432023;1272;112535;-40
2022/08/29 19:59:26;;;;;;;16.10;6.90;;;;;;;16.49;67.57;98945.58;432209;1272;109068;-40
2022/08/29 20:09:32;;;;;;;16.90;7.30;;;;;;;16.40;67.72;98942.34;432370;1272;98022;-40
2022/08/29 20:19:41;;;;;;;13.30;6.40;;;;;;;16.34;68.17;98947.73;432480;1273;108890;-42
2022/08/29 20:29:48;;;;;;;13.80;5.70;;;;;;;16.23;68.48;98954.41;431878;1271;98835;-42
2022/08/29 20:39:57;;;;;;;15.70;5.60;;;;;;;16.08;68.31;98961.68;432661;1271;112392;-40
2022/08/29 20:50:03;;;;;;;32.10;12.50;;;;;;;16.01;68.79;98963.55;432337;1271;108675;-41
2022/08/29 21:00:13;;;;;;;21.70;10.20;;;;;;;16.02;68.93;98959.02;432432;1271;98982;-41
2022/08/29 21:10:20;;;;;;;12.00;6.60;;;;;;;15.87;69.29;98963.98;432534;1273;109008;-40
2022/08/29 21:20:28;;;;;;;8.10;5.30;;;;;;;15.56;69.29;98966.81;432147;1273;98048;-40
2022/08/29 21:30:36;;;;;;;11.30;5.60;;;;;;;15.37;69.78;98984.75;432263;1271;113114;-40
2022/08/29 21:40:48;;;;;;;8.00;4.70;;;;;;;15.39;70.32;98990.27;432108;1271;108911;-41
2022/08/29 21:50:54;;;;;;;19.20;7.30;;;;;;;15.33;70.63;98986.04;432621;1271;98348;-41
2022/08/29 22:01:02;;;;;;;12.00;6.20;;;;;;;15.14;70.97;98978.59;432642;1270;108070;-41
2022/08/29 22:11:14;;;;;;;10.70;5.50;;;;;;;15.03;71.26;98973.48;432367;1271;98047;-41
2022/08/29 22:21:21;;;;;;;10.20;4.40;;;;;;;15.04;71.51;98975.19;432213;1271;112006;-41
2022/08/29 22:31:30;;;;;;;14.10;5.20;;;;;;;15.19;71.72;98976.26;432274;1271;109188;-41
2022/08/29 22:41:38;;;;;;;15.20;6.10;;;;;;;15.18;71.67;98978.76;432696;1271;99286;-42
2022/08/29 22:51:49;;;;;;;10.40;5.10;;;;;;;15.06;71.92;98995.02;432284;1271;109010;-42
2022/08/29 23:01:57;;;;;;;9.00;5.50;;;;;;;15.00;72.23;98996.45;432090;1271;99968;-41
2022/08/29 23:12:05;;;;;;;14.60;5.30;;;;;;;15.04;72.35;98980.58;432228;1271;112406;-41
2022/08/29 23:22:14;;;;;;;14.20;5.40;;;;;;;15.11;72.40;98973.13;432414;1271;109337;-41
2022/08/29 23:32:21;;;;;;;9.80;5.20;;;;;;;15.08;72.80;98972.56;432696;1271;98030;-41
2022/08/29 23:52:35;;;;;;;7.10;4.60;;;;;;;14.79;72.90;98973.10;432253;1271;99250;-41
